CMB860 Details

Departure: Ramstein Air Force Base (ETAR)
Arrival: Keflavík International Airport (BIKF) at N/A
Route: RUDOT LNO UN852 SPY L602 BERGI UM90 LONAM N610 RATSU ALDAN ASRUN ASRUN1H
Notes: USTRANSCOM CONTRACT FLIGHT


Current Weather Information
ETAR 250428Z AUTO 00000KT 0600 R08/0900VP1500 FG CLR 12/12 A3009 RMK AO2 VIS 0600V1400 SLP185 $
BIKF 250430Z 14007KT 9999 FEW023 BKN085 OVC110 09/06 Q1007